sensor_id;sensor_type;location;lat;lon;timestamp;P1;durP1;ratioP1;P2;durP2;ratioP2
53642;SDS011;39546;45.534;12.048;2022-12-18T00:02:11;4.93;;;3.12;;
53642;SDS011;39546;45.534;12.048;2022-12-18T00:08:14;4.95;;;3.28;;
53642;SDS011;39546;45.534;12.048;2022-12-18T00:14:17;5.10;;;3.03;;
53642;SDS011;39546;45.534;12.048;2022-12-18T00:26:31;5.65;;;3.65;;
53642;SDS011;39546;45.534;12.048;2022-12-18T00:32:35;3.50;;;2.10;;
53642;SDS011;39546;45.534;12.048;2022-12-18T00:38:38;4.12;;;2.22;;
53642;SDS011;39546;45.534;12.048;2022-12-18T00:44:40;6.97;;;3.47;;
53642;SDS011;39546;45.534;12.048;2022-12-18T00:50:42;5.10;;;3.42;;
53642;SDS011;39546;45.534;12.048;2022-12-18T00:56:46;3.97;;;2.65;;
53642;SDS011;39546;45.534;12.048;2022-12-18T01:02:50;4.28;;;3.30;;
53642;SDS011;39546;45.534;12.048;2022-12-18T01:08:53;5.80;;;3.40;;
53642;SDS011;39546;45.534;12.048;2022-12-18T01:14:54;6.25;;;3.97;;
53642;SDS011;39546;45.534;12.048;2022-12-18T01:20:56;6.65;;;4.03;;
53642;SDS011;39546;45.534;12.048;2022-12-18T01:26:58;6.87;;;4.35;;
53642;SDS011;39546;45.534;12.048;2022-12-18T01:33:00;6.72;;;3.67;;
53642;SDS011;39546;45.534;12.048;2022-12-18T01:39:04;6.37;;;3.20;;
53642;SDS011;39546;45.534;12.048;2022-12-18T01:45:30;5.00;;;3.42;;
53642;SDS011;39546;45.534;12.048;2022-12-18T01:51:33;6.22;;;3.62;;
53642;SDS011;39546;45.534;12.048;2022-12-18T01:57:35;6.93;;;5.00;;
53642;SDS011;39546;45.534;12.048;2022-12-18T02:03:40;5.28;;;4.00;;
53642;SDS011;39546;45.534;12.048;2022-12-18T02:09:46;6.50;;;4.68;;
53642;SDS011;39546;45.534;12.048;2022-12-18T02:28:31;6.28;;;3.62;;
53642;SDS011;39546;45.534;12.048;2022-12-18T02:34:38;6.53;;;4.18;;
53642;SDS011;39546;45.534;12.048;2022-12-18T02:40:42;5.97;;;3.03;;
53642;SDS011;39546;45.534;12.048;2022-12-18T02:46:49;4.60;;;3.03;;
53642;SDS011;39546;45.534;12.048;2022-12-18T02:59:16;4.72;;;2.67;;
53642;SDS011;39546;45.534;12.048;2022-12-18T03:05:31;4.80;;;2.90;;
53642;SDS011;39546;45.534;12.048;2022-12-18T03:11:42;5.40;;;2.50;;
53642;SDS011;39546;45.534;12.048;2022-12-18T03:18:16;4.87;;;2.40;;
53642;SDS011;39546;45.534;12.048;2022-12-18T03:24:31;4.57;;;2.70;;
53642;SDS011;39546;45.534;12.048;2022-12-18T03:30:35;4.05;;;3.10;;
53642;SDS011;39546;45.534;12.048;2022-12-18T03:36:42;4.20;;;2.40;;
53642;SDS011;39546;45.534;12.048;2022-12-18T03:42:49;4.15;;;2.50;;
53642;SDS011;39546;45.534;12.048;2022-12-18T03:49:04;5.10;;;2.60;;
53642;SDS011;39546;45.534;12.048;2022-12-18T03:55:12;3.20;;;2.37;;
53642;SDS011;39546;45.534;12.048;2022-12-18T04:01:15;2.95;;;1.95;;
53642;SDS011;39546;45.534;12.048;2022-12-18T04:07:19;4.65;;;2.33;;
53642;SDS011;39546;45.534;12.048;2022-12-18T04:13:29;3.65;;;2.15;;
53642;SDS011;39546;45.534;12.048;2022-12-18T04:19:36;3.72;;;2.62;;
53642;SDS011;39546;45.534;12.048;2022-12-18T04:25:38;7.55;;;2.95;;
53642;SDS011;39546;45.534;12.048;2022-12-18T04:31:40;4.30;;;2.45;;
53642;SDS011;39546;45.534;12.048;2022-12-18T04:37:43;3.28;;;2.10;;
53642;SDS011;39546;45.534;12.048;2022-12-18T04:43:45;5.35;;;3.05;;
53642;SDS011;39546;45.534;12.048;2022-12-18T04:49:48;3.97;;;1.83;;
53642;SDS011;39546;45.534;12.048;2022-12-18T04:55:50;3.70;;;2.50;;
53642;SDS011;39546;45.534;12.048;2022-12-18T05:01:52;5.25;;;3.58;;
53642;SDS011;39546;45.534;12.048;2022-12-18T05:07:54;4.47;;;2.67;;
53642;SDS011;39546;45.534;12.048;2022-12-18T05:13:56;4.20;;;2.37;;
53642;SDS011;39546;45.534;12.048;2022-12-18T05:19:58;5.75;;;2.78;;
53642;SDS011;39546;45.534;12.048;2022-12-18T05:26:01;4.85;;;2.70;;
53642;SDS011;39546;45.534;12.048;2022-12-18T05:32:05;4.20;;;2.42;;
53642;SDS011;39546;45.534;12.048;2022-12-18T05:38:07;6.40;;;4.75;;
53642;SDS011;39546;45.534;12.048;2022-12-18T05:44:09;5.20;;;3.20;;
53642;SDS011;39546;45.534;12.048;2022-12-18T05:50:11;7.55;;;4.65;;
53642;SDS011;39546;45.534;12.048;2022-12-18T05:56:14;7.10;;;4.87;;
53642;SDS011;39546;45.534;12.048;2022-12-18T06:02:18;7.07;;;5.03;;
53642;SDS011;39546;45.534;12.048;2022-12-18T06:08:22;8.32;;;4.00;;
53642;SDS011;39546;45.534;12.048;2022-12-18T06:14:24;8.60;;;5.45;;
53642;SDS011;39546;45.534;12.048;2022-12-18T06:20:26;9.10;;;5.95;;
53642;SDS011;39546;45.534;12.048;2022-12-18T06:26:28;10.82;;;7.35;;
53642;SDS011;39546;45.534;12.048;2022-12-18T06:32:30;9.80;;;6.05;;
53642;SDS011;39546;45.534;12.048;2022-12-18T06:38:33;9.93;;;6.15;;
53642;SDS011;39546;45.534;12.048;2022-12-18T06:44:37;8.77;;;6.05;;
53642;SDS011;39546;45.534;12.048;2022-12-18T06:50:41;10.50;;;5.82;;
53642;SDS011;39546;45.534;12.048;2022-12-18T06:56:46;7.55;;;4.18;;
53642;SDS011;39546;45.534;12.048;2022-12-18T07:02:49;6.65;;;4.28;;
53642;SDS011;39546;45.534;12.048;2022-12-18T07:08:51;5.12;;;3.28;;
53642;SDS011;39546;45.534;12.048;2022-12-18T07:14:54;6.37;;;4.00;;
53642;SDS011;39546;45.534;12.048;2022-12-18T07:20:56;5.95;;;3.83;;
53642;SDS011;39546;45.534;12.048;2022-12-18T07:26:58;7.40;;;4.07;;
53642;SDS011;39546;45.534;12.048;2022-12-18T07:33:00;5.62;;;4.05;;
53642;SDS011;39546;45.534;12.048;2022-12-18T07:39:02;3.95;;;3.08;;
53642;SDS011;39546;45.534;12.048;2022-12-18T07:45:04;8.50;;;4.72;;
53642;SDS011;39546;45.534;12.048;2022-12-18T07:51:07;5.75;;;4.30;;
53642;SDS011;39546;45.534;12.048;2022-12-18T07:57:09;5.25;;;3.25;;
53642;SDS011;39546;45.534;12.048;2022-12-18T08:03:14;7.10;;;3.50;;
53642;SDS011;39546;45.534;12.048;2022-12-18T08:09:16;6.60;;;4.75;;
53642;SDS011;39546;45.534;12.048;2022-12-18T08:15:18;7.62;;;5.35;;
53642;SDS011;39546;45.534;12.048;2022-12-18T08:21:21;7.62;;;4.43;;
53642;SDS011;39546;45.534;12.048;2022-12-18T08:27:29;5.62;;;3.30;;
53642;SDS011;39546;45.534;12.048;2022-12-18T08:33:35;4.95;;;3.28;;
53642;SDS011;39546;45.534;12.048;2022-12-18T08:39:38;8.60;;;5.15;;
53642;SDS011;39546;45.534;12.048;2022-12-18T08:45:40;9.75;;;4.62;;
53642;SDS011;39546;45.534;12.048;2022-12-18T08:51:43;7.20;;;4.62;;
53642;SDS011;39546;45.534;12.048;2022-12-18T08:57:47;8.02;;;4.95;;
53642;SDS011;39546;45.534;12.048;2022-12-18T09:03:50;8.13;;;4.53;;
53642;SDS011;39546;45.534;12.048;2022-12-18T09:09:52;7.78;;;4.72;;
53642;SDS011;39546;45.534;12.048;2022-12-18T09:15:55;6.18;;;4.00;;
53642;SDS011;39546;45.534;12.048;2022-12-18T09:21:57;8.25;;;4.30;;
53642;SDS011;39546;45.534;12.048;2022-12-18T09:27:59;6.18;;;3.75;;
53642;SDS011;39546;45.534;12.048;2022-12-18T09:34:02;7.45;;;4.30;;
53642;SDS011;39546;45.534;12.048;2022-12-18T09:40:12;9.20;;;6.07;;
53642;SDS011;39546;45.534;12.048;2022-12-18T09:46:32;7.37;;;5.07;;
53642;SDS011;39546;45.534;12.048;2022-12-18T09:52:40;9.38;;;4.95;;
53642;SDS011;39546;45.534;12.048;2022-12-18T09:58:47;5.33;;;3.03;;
53642;SDS011;39546;45.534;12.048;2022-12-18T10:05:17;7.03;;;4.60;;
53642;SDS011;39546;45.534;12.048;2022-12-18T10:17:56;11.63;;;4.40;;
53642;SDS011;39546;45.534;12.048;2022-12-18T10:30:20;8.43;;;5.15;;
53642;SDS011;39546;45.534;12.048;2022-12-18T10:36:24;7.18;;;4.28;;
53642;SDS011;39546;45.534;12.048;2022-12-18T10:42:26;11.18;;;9.25;;
53642;SDS011;39546;45.534;12.048;2022-12-18T10:48:28;9.07;;;5.57;;
53642;SDS011;39546;45.534;12.048;2022-12-18T10:54:31;10.80;;;7.35;;
53642;SDS011;39546;45.534;12.048;2022-12-18T11:00:35;9.25;;;6.35;;
53642;SDS011;39546;45.534;12.048;2022-12-18T11:06:51;13.20;;;7.57;;
53642;SDS011;39546;45.534;12.048;2022-12-18T11:12:54;11.38;;;7.45;;
53642;SDS011;39546;45.534;12.048;2022-12-18T11:25:32;15.88;;;10.05;;
53642;SDS011;39546;45.534;12.048;2022-12-18T11:31:35;13.10;;;7.85;;
53642;SDS011;39546;45.534;12.048;2022-12-18T11:37:37;15.60;;;10.80;;
53642;SDS011;39546;45.534;12.048;2022-12-18T11:43:45;18.62;;;11.68;;
53642;SDS011;39546;45.534;12.048;2022-12-18T11:49:55;17.90;;;10.63;;
53642;SDS011;39546;45.534;12.048;2022-12-18T12:02:36;11.85;;;7.37;;
53642;SDS011;39546;45.534;12.048;2022-12-18T12:09:03;10.18;;;6.57;;
53642;SDS011;39546;45.534;12.048;2022-12-18T12:21:40;13.75;;;7.70;;
53642;SDS011;39546;45.534;12.048;2022-12-18T12:27:48;9.77;;;5.75;;
53642;SDS011;39546;45.534;12.048;2022-12-18T12:34:16;12.50;;;7.45;;
53642;SDS011;39546;45.534;12.048;2022-12-18T12:40:19;10.15;;;6.55;;
53642;SDS011;39546;45.534;12.048;2022-12-18T12:46:27;12.18;;;7.55;;
53642;SDS011;39546;45.534;12.048;2022-12-18T12:52:37;9.75;;;5.60;;
53642;SDS011;39546;45.534;12.048;2022-12-18T13:11:38;11.35;;;7.25;;
53642;SDS011;39546;45.534;12.048;2022-12-18T13:24:20;11.27;;;7.18;;
53642;SDS011;39546;45.534;12.048;2022-12-18T13:36:46;11.90;;;6.57;;
53642;SDS011;39546;45.534;12.048;2022-12-18T13:42:50;13.98;;;9.02;;
53642;SDS011;39546;45.534;12.048;2022-12-18T13:55:16;24.77;;;14.75;;
53642;SDS011;39546;45.534;12.048;2022-12-18T14:01:21;14.45;;;7.82;;
53642;SDS011;39546;45.534;12.048;2022-12-18T14:07:24;14.77;;;7.90;;
53642;SDS011;39546;45.534;12.048;2022-12-18T14:13:37;11.40;;;7.20;;
53642;SDS011;39546;45.534;12.048;2022-12-18T14:19:45;12.37;;;6.55;;
53642;SDS011;39546;45.534;12.048;2022-12-18T14:25:49;9.20;;;5.68;;
53642;SDS011;39546;45.534;12.048;2022-12-18T14:32:09;8.68;;;5.50;;
53642;SDS011;39546;45.534;12.048;2022-12-18T14:44:35;7.65;;;4.47;;
53642;SDS011;39546;45.534;12.048;2022-12-18T14:50:37;7.57;;;4.28;;
53642;SDS011;39546;45.534;12.048;2022-12-18T14:56:44;6.05;;;4.18;;
53642;SDS011;39546;45.534;12.048;2022-12-18T15:02:54;6.47;;;3.30;;
53642;SDS011;39546;45.534;12.048;2022-12-18T15:08:58;6.70;;;3.65;;
53642;SDS011;39546;45.534;12.048;2022-12-18T15:15:02;5.93;;;3.55;;
53642;SDS011;39546;45.534;12.048;2022-12-18T15:21:10;6.87;;;2.75;;
53642;SDS011;39546;45.534;12.048;2022-12-18T15:39:54;3.37;;;2.42;;
53642;SDS011;39546;45.534;12.048;2022-12-18T15:45:56;3.95;;;2.22;;
53642;SDS011;39546;45.534;12.048;2022-12-18T15:51:59;3.92;;;2.00;;
53642;SDS011;39546;45.534;12.048;2022-12-18T15:58:03;4.00;;;2.22;;
53642;SDS011;39546;45.534;12.048;2022-12-18T16:04:06;4.93;;;2.17;;
53642;SDS011;39546;45.534;12.048;2022-12-18T16:10:10;5.68;;;2.90;;
53642;SDS011;39546;45.534;12.048;2022-12-18T16:16:12;5.82;;;3.25;;
53642;SDS011;39546;45.534;12.048;2022-12-18T16:22:18;7.15;;;4.15;;
53642;SDS011;39546;45.534;12.048;2022-12-18T16:28:22;6.97;;;4.00;;
53642;SDS011;39546;45.534;12.048;2022-12-18T16:40:30;10.43;;;5.37;;
53642;SDS011;39546;45.534;12.048;2022-12-18T16:46:34;9.18;;;5.85;;
53642;SDS011;39546;45.534;12.048;2022-12-18T16:52:37;9.85;;;6.78;;
53642;SDS011;39546;45.534;12.048;2022-12-18T16:58:39;8.98;;;5.35;;
53642;SDS011;39546;45.534;12.048;2022-12-18T17:04:41;7.35;;;4.87;;
53642;SDS011;39546;45.534;12.048;2022-12-18T17:10:44;9.27;;;5.80;;
53642;SDS011;39546;45.534;12.048;2022-12-18T17:16:46;10.00;;;5.20;;
53642;SDS011;39546;45.534;12.048;2022-12-18T17:22:48;9.77;;;5.97;;
53642;SDS011;39546;45.534;12.048;2022-12-18T17:28:49;9.63;;;6.30;;
53642;SDS011;39546;45.534;12.048;2022-12-18T17:34:52;10.48;;;6.93;;
53642;SDS011;39546;45.534;12.048;2022-12-18T17:40:58;11.48;;;6.32;;
53642;SDS011;39546;45.534;12.048;2022-12-18T17:47:01;13.38;;;8.82;;
53642;SDS011;39546;45.534;12.048;2022-12-18T17:53:04;12.05;;;8.32;;
53642;SDS011;39546;45.534;12.048;2022-12-18T17:59:06;12.23;;;8.32;;
53642;SDS011;39546;45.534;12.048;2022-12-18T18:05:08;11.75;;;8.57;;
53642;SDS011;39546;45.534;12.048;2022-12-18T18:11:16;12.93;;;9.77;;
53642;SDS011;39546;45.534;12.048;2022-12-18T18:17:38;14.73;;;9.63;;
53642;SDS011;39546;45.534;12.048;2022-12-18T18:23:40;12.73;;;8.68;;
53642;SDS011;39546;45.534;12.048;2022-12-18T18:29:42;17.42;;;10.60;;
53642;SDS011;39546;45.534;12.048;2022-12-18T18:35:44;18.05;;;14.23;;
53642;SDS011;39546;45.534;12.048;2022-12-18T18:41:47;20.25;;;13.52;;
53642;SDS011;39546;45.534;12.048;2022-12-18T18:47:50;20.30;;;13.32;;
53642;SDS011;39546;45.534;12.048;2022-12-18T18:53:52;26.85;;;18.15;;
53642;SDS011;39546;45.534;12.048;2022-12-18T18:59:54;39.85;;;22.75;;
53642;SDS011;39546;45.534;12.048;2022-12-18T19:05:57;35.35;;;23.52;;
53642;SDS011;39546;45.534;12.048;2022-12-18T19:12:01;35.13;;;23.35;;
53642;SDS011;39546;45.534;12.048;2022-12-18T19:18:22;38.25;;;26.67;;
53642;SDS011;39546;45.534;12.048;2022-12-18T19:24:35;32.22;;;24.90;;
53642;SDS011;39546;45.534;12.048;2022-12-18T19:30:37;34.45;;;27.62;;
53642;SDS011;39546;45.534;12.048;2022-12-18T19:36:40;23.48;;;17.40;;
53642;SDS011;39546;45.534;12.048;2022-12-18T19:42:42;24.52;;;16.48;;
53642;SDS011;39546;45.534;12.048;2022-12-18T19:49:03;18.17;;;12.80;;
53642;SDS011;39546;45.534;12.048;2022-12-18T19:55:06;16.35;;;12.10;;
53642;SDS011;39546;45.534;12.048;2022-12-18T20:01:09;18.58;;;14.68;;
53642;SDS011;39546;45.534;12.048;2022-12-18T20:07:26;14.60;;;10.45;;
53642;SDS011;39546;45.534;12.048;2022-12-18T20:13:28;17.50;;;12.40;;
53642;SDS011;39546;45.534;12.048;2022-12-18T20:26:04;25.75;;;18.27;;
53642;SDS011;39546;45.534;12.048;2022-12-18T20:32:07;26.70;;;14.30;;
53642;SDS011;39546;45.534;12.048;2022-12-18T20:38:18;18.75;;;13.15;;
53642;SDS011;39546;45.534;12.048;2022-12-18T20:44:20;22.90;;;15.85;;
53642;SDS011;39546;45.534;12.048;2022-12-18T20:50:23;19.65;;;15.90;;
53642;SDS011;39546;45.534;12.048;2022-12-18T20:56:25;18.98;;;14.82;;
53642;SDS011;39546;45.534;12.048;2022-12-18T21:02:30;20.52;;;15.65;;
53642;SDS011;39546;45.534;12.048;2022-12-18T21:08:32;19.85;;;15.80;;
53642;SDS011;39546;45.534;12.048;2022-12-18T21:14:35;19.37;;;14.98;;
53642;SDS011;39546;45.534;12.048;2022-12-18T21:20:37;26.00;;;16.95;;
53642;SDS011;39546;45.534;12.048;2022-12-18T21:26:39;30.55;;;20.90;;
53642;SDS011;39546;45.534;12.048;2022-12-18T21:32:43;24.30;;;17.75;;
53642;SDS011;39546;45.534;12.048;2022-12-18T21:38:46;21.75;;;17.42;;
53642;SDS011;39546;45.534;12.048;2022-12-18T21:44:48;21.30;;;18.17;;
53642;SDS011;39546;45.534;12.048;2022-12-18T21:50:50;22.65;;;17.60;;
53642;SDS011;39546;45.534;12.048;2022-12-18T22:02:55;29.92;;;25.67;;
53642;SDS011;39546;45.534;12.048;2022-12-18T22:08:57;24.42;;;18.65;;
53642;SDS011;39546;45.534;12.048;2022-12-18T22:15:00;21.37;;;17.90;;
53642;SDS011;39546;45.534;12.048;2022-12-18T22:21:05;28.62;;;22.87;;
53642;SDS011;39546;45.534;12.048;2022-12-18T22:27:07;32.00;;;22.87;;
53642;SDS011;39546;45.534;12.048;2022-12-18T22:33:11;23.92;;;20.42;;
53642;SDS011;39546;45.534;12.048;2022-12-18T22:39:14;29.50;;;25.70;;
53642;SDS011;39546;45.534;12.048;2022-12-18T22:45:24;27.85;;;23.05;;
53642;SDS011;39546;45.534;12.048;2022-12-18T22:51:27;26.85;;;20.80;;
53642;SDS011;39546;45.534;12.048;2022-12-18T22:57:28;23.42;;;16.87;;
53642;SDS011;39546;45.534;12.048;2022-12-18T23:03:32;25.80;;;20.12;;
53642;SDS011;39546;45.534;12.048;2022-12-18T23:09:34;28.12;;;19.08;;
53642;SDS011;39546;45.534;12.048;2022-12-18T23:15:40;23.30;;;18.50;;
53642;SDS011;39546;45.534;12.048;2022-12-18T23:21:42;22.77;;;18.65;;
53642;SDS011;39546;45.534;12.048;2022-12-18T23:27:44;21.00;;;17.10;;
53642;SDS011;39546;45.534;12.048;2022-12-18T23:33:46;19.73;;;15.18;;
53642;SDS011;39546;45.534;12.048;2022-12-18T23:39:48;20.58;;;16.23;;
53642;SDS011;39546;45.534;12.048;2022-12-18T23:45:51;19.55;;;14.90;;
53642;SDS011;39546;45.534;12.048;2022-12-18T23:51:53;21.40;;;16.37;;
